Time,TemperatureF,DewpointF,PressureIn,WindDirection,WindDirectionDegrees,WindSpeedMPH,WindSpeedGustMPH,Humidity,HourlyPrecipIn,Conditions,Clouds,dailyrainin,SoftwareType,DateUTC
2013-04-29 00:01:00,68.7,63.3,30.06,SSE,148,0.0,4.0,83,0.00,,,0.00,meteohub,2013-04-29 04:01:00,
2013-04-29 00:02:00,68.7,63.3,30.06,SSE,148,0.0,4.0,83,0.00,,,0.00,meteohub,2013-04-29 04:02:00,
2013-04-29 00:04:00,68.5,63.5,30.06,SSE,148,0.0,4.0,84,0.00,,,0.00,meteohub,2013-04-29 04:04:00,
2013-04-29 00:09:00,68.4,63.3,30.05,SSE,162,0.0,4.0,84,0.00,,,0.00,meteohub,2013-04-29 04:09:00,
2013-04-29 00:14:00,68.2,63.5,30.05,SE,133,0.0,2.0,85,0.00,,,0.00,meteohub,2013-04-29 04:14:00,
2013-04-29 00:19:00,67.8,63.1,30.05,South,170,0.0,1.0,85,0.00,,,0.00,meteohub,2013-04-29 04:19:00,
2013-04-29 00:25:00,67.8,63.5,30.05,SSW,197,0.0,1.0,86,0.00,,,0.00,meteohub,2013-04-29 04:25:00,
2013-04-29 00:30:00,67.6,63.3,30.05,SSE,166,0.0,1.0,86,0.00,,,0.00,meteohub,2013-04-29 04:30:00,
2013-04-29 00:35:00,67.6,63.3,30.05,SSE,160,2.0,2.0,86,0.00,,,0.00,meteohub,2013-04-29 04:35:00,
2013-04-29 00:40:00,67.8,63.5,30.06,SSE,168,0.0,2.0,86,0.00,,,0.00,meteohub,2013-04-29 04:40:00,
2013-04-29 00:45:00,67.8,63.5,30.06,SSW,201,0.0,3.0,86,0.00,,,0.00,meteohub,2013-04-29 04:45:00,
2013-04-29 00:50:00,67.6,63.3,30.06,SSE,155,0.0,2.0,86,0.00,,,0.00,meteohub,2013-04-29 04:50:00,
2013-04-29 00:55:00,67.6,63.7,30.06,SSE,162,0.0,2.0,87,0.00,,,0.00,meteohub,2013-04-29 04:55:00,
2013-04-29 01:00:00,67.5,63.5,30.06,SSE,155,0.0,1.0,87,0.00,,,0.00,meteohub,2013-04-29 05:00:00,
2013-04-29 01:06:00,67.3,63.7,30.06,SSW,210,0.0,3.0,88,0.00,,,0.00,meteohub,2013-04-29 05:06:00,
2013-04-29 01:11:00,66.9,63.3,30.06,SSW,210,0.0,3.0,88,0.00,,,0.00,meteohub,2013-04-29 05:11:00,
2013-04-29 01:16:00,66.7,63.1,30.06,SSW,205,0.0,3.0,88,0.00,,,0.00,meteohub,2013-04-29 05:16:00,
2013-04-29 01:21:00,66.6,63.1,30.06,SSW,207,0.0,1.0,89,0.00,,,0.00,meteohub,2013-04-29 05:21:00,
2013-04-29 01:26:00,66.4,63.0,30.05,SSE,156,0.0,1.0,89,0.00,,,0.00,meteohub,2013-04-29 05:26:00,
2013-04-29 01:31:00,66.4,63.3,30.05,SSE,162,0.0,1.0,90,0.00,,,0.00,meteohub,2013-04-29 05:31:00,
2013-04-29 01:36:00,66.4,63.3,30.05,SSE,156,0.0,1.0,90,0.00,,,0.00,meteohub,2013-04-29 05:36:00,
2013-04-29 01:42:00,66.4,63.3,30.05,SSE,156,0.0,1.0,90,0.00,,,0.00,meteohub,2013-04-29 05:42:00,
2013-04-29 01:47:00,66.4,63.3,30.05,South,170,0.0,1.0,90,0.00,,,0.00,meteohub,2013-04-29 05:47:00,
2013-04-29 01:52:00,66.0,63.0,30.05,South,170,0.0,0.0,90,0.00,,,0.00,meteohub,2013-04-29 05:52:00,
2013-04-29 01:57:00,65.8,62.8,30.04,South,170,0.0,0.0,90,0.00,,,0.00,meteohub,2013-04-29 05:57:00,
2013-04-29 02:02:00,65.7,62.6,30.04,South,170,0.0,0.0,90,0.00,,,0.00,meteohub,2013-04-29 06:02:00,
2013-04-29 02:07:00,65.3,62.6,30.05,South,170,0.0,0.0,91,0.00,,,0.00,meteohub,2013-04-29 06:07:00,
2013-04-29 02:12:00,64.9,62.2,30.04,South,170,0.0,0.0,91,0.00,,,0.00,meteohub,2013-04-29 06:12:00,
2013-04-29 02:17:00,64.8,62.1,30.04,South,170,0.0,0.0,91,0.00,,,0.00,meteohub,2013-04-29 06:17:00,
2013-04-29 02:22:00,64.8,62.4,30.04,South,170,0.0,0.0,92,0.00,,,0.00,meteohub,2013-04-29 06:22:00,
2013-04-29 02:27:00,64.8,62.4,30.03,South,170,0.0,0.0,92,0.00,,,0.00,meteohub,2013-04-29 06:27:00,
2013-04-29 02:33:00,64.6,62.4,30.03,South,170,0.0,0.0,93,0.00,,,0.00,meteohub,2013-04-29 06:33:00,
2013-04-29 02:38:00,64.6,62.4,30.03,SSE,155,0.0,0.0,93,0.00,,,0.00,meteohub,2013-04-29 06:38:00,
2013-04-29 02:43:00,64.6,62.8,30.03,South,172,0.0,1.0,94,0.00,,,0.00,meteohub,2013-04-29 06:43:00,
2013-04-29 02:48:00,64.8,62.6,30.03,South,172,0.0,1.0,93,0.00,,,0.00,meteohub,2013-04-29 06:48:00,
2013-04-29 02:53:00,64.4,62.4,30.03,South,172,0.0,1.0,93,0.00,,,0.00,meteohub,2013-04-29 06:53:00,
2013-04-29 02:58:00,64.2,62.2,30.03,South,172,0.0,0.0,93,0.00,,,0.00,meteohub,2013-04-29 06:58:00,
2013-04-29 03:03:00,64.2,62.4,30.03,South,172,0.0,0.0,94,0.00,,,0.00,meteohub,2013-04-29 07:03:00,
2013-04-29 03:09:00,64.2,62.4,30.02,South,172,0.0,0.0,94,0.00,,,0.00,meteohub,2013-04-29 07:09:00,
2013-04-29 03:14:00,64.2,62.8,30.02,SE,146,0.0,0.0,95,0.00,,,0.00,meteohub,2013-04-29 07:14:00,
2013-04-29 03:19:00,64.4,63.0,30.02,SSW,203,0.0,1.0,95,0.00,,,0.00,meteohub,2013-04-29 07:19:00,
2013-04-29 03:24:00,64.6,63.1,30.02,SW,222,0.0,1.0,95,0.00,,,0.00,meteohub,2013-04-29 07:24:00,
2013-04-29 03:29:00,64.8,63.3,30.02,SSW,205,0.0,2.0,95,0.00,,,0.00,meteohub,2013-04-29 07:29:00,
2013-04-29 03:34:00,64.9,63.1,30.02,SSW,205,0.0,2.0,94,0.00,,,0.00,meteohub,2013-04-29 07:34:00,
2013-04-29 03:40:00,64.9,63.1,30.02,SSE,162,0.0,2.0,94,0.00,,,0.00,meteohub,2013-04-29 07:40:00,
2013-04-29 03:45:00,65.1,63.3,30.02,SE,143,0.0,1.0,94,0.00,,,0.00,meteohub,2013-04-29 07:45:00,
2013-04-29 03:50:00,65.3,63.5,30.01,South,169,1.0,2.0,94,0.00,,,0.00,meteohub,2013-04-29 07:50:00,
2013-04-29 03:55:00,65.7,63.5,30.01,South,177,0.0,2.0,93,0.00,,,0.00,meteohub,2013-04-29 07:55:00,
2013-04-29 04:00:00,65.8,63.7,30.01,South,169,0.0,5.0,93,0.00,,,0.00,meteohub,2013-04-29 08:00:00,
2013-04-29 04:05:00,66.0,63.7,30.01,SSE,163,0.0,5.0,92,0.00,,,0.00,meteohub,2013-04-29 08:05:00,
2013-04-29 04:11:00,66.4,64.0,30.01,SSW,203,3.0,5.0,92,0.00,,,0.00,meteohub,2013-04-29 08:11:00,
2013-04-29 04:16:00,66.7,64.0,30.01,South,189,0.0,7.0,91,0.00,,,0.00,meteohub,2013-04-29 08:16:00,
2013-04-29 04:21:00,66.9,63.9,30.01,SW,217,0.0,7.0,90,0.00,,,0.00,meteohub,2013-04-29 08:21:00,
2013-04-29 04:26:00,67.3,64.2,30.01,SSE,165,3.0,7.0,90,0.00,,,0.00,meteohub,2013-04-29 08:26:00,
2013-04-29 04:31:00,67.3,63.9,30.01,SSE,165,1.0,3.0,89,0.00,,,0.00,meteohub,2013-04-29 08:31:00,
2013-04-29 04:36:00,67.5,64.0,30.01,SSE,153,0.0,3.0,89,0.00,,,0.00,meteohub,2013-04-29 08:36:00,
2013-04-29 04:41:00,67.5,64.0,30.01,South,173,0.0,3.0,89,0.00,,,0.00,meteohub,2013-04-29 08:41:00,
2013-04-29 04:46:00,67.3,63.9,30.01,South,173,0.0,2.0,89,0.00,,,0.00,meteohub,2013-04-29 08:46:00,
2013-04-29 04:52:00,66.9,63.5,30.02,South,173,0.0,1.0,89,0.00,,,0.00,meteohub,2013-04-29 08:52:00,
2013-04-29 04:57:00,66.7,63.3,30.01,South,173,0.0,0.0,89,0.00,,,0.00,meteohub,2013-04-29 08:57:00,
2013-04-29 05:02:00,66.4,63.0,30.02,South,173,0.0,0.0,89,0.00,,,0.00,meteohub,2013-04-29 09:02:00,
2013-04-29 05:07:00,65.8,62.4,30.02,South,173,0.0,0.0,89,0.00,,,0.00,meteohub,2013-04-29 09:07:00,
2013-04-29 05:12:00,65.7,63.0,30.02,South,173,0.0,0.0,91,0.00,,,0.00,meteohub,2013-04-29 09:12:00,
2013-04-29 05:17:00,65.5,62.8,30.02,South,173,0.0,0.0,91,0.00,,,0.00,meteohub,2013-04-29 09:17:00,
2013-04-29 05:22:00,65.1,62.4,30.02,South,173,0.0,0.0,91,0.00,,,0.00,meteohub,2013-04-29 09:22:00,
2013-04-29 05:27:00,64.9,62.2,30.02,South,172,0.0,0.0,91,0.00,,,0.00,meteohub,2013-04-29 09:27:00,
2013-04-29 05:32:00,64.8,62.4,30.02,South,173,0.0,0.0,92,0.00,,,0.00,meteohub,2013-04-29 09:32:00,
2013-04-29 05:37:00,64.8,62.4,30.02,South,173,0.0,0.0,92,0.00,,,0.00,meteohub,2013-04-29 09:37:00,
2013-04-29 05:42:00,64.6,62.4,30.03,South,173,0.0,0.0,93,0.00,,,0.00,meteohub,2013-04-29 09:42:00,
2013-04-29 05:47:00,64.6,62.4,30.04,South,172,0.0,0.0,93,0.00,,,0.00,meteohub,2013-04-29 09:47:00,
2013-04-29 05:53:00,64.8,63.0,30.03,South,172,0.0,0.0,94,0.00,,,0.00,meteohub,2013-04-29 09:53:00,
2013-04-29 05:58:00,64.9,63.1,30.03,South,173,0.0,0.0,94,0.00,,,0.00,meteohub,2013-04-29 09:58:00,
2013-04-29 06:03:00,64.9,63.1,30.03,South,172,0.0,0.0,94,0.00,,,0.00,meteohub,2013-04-29 10:03:00,
2013-04-29 06:08:00,64.9,63.1,30.03,South,173,0.0,0.0,94,0.00,,,0.00,meteohub,2013-04-29 10:08:00,
2013-04-29 06:13:00,65.1,63.3,30.04,South,172,0.0,0.0,94,0.00,,,0.00,meteohub,2013-04-29 10:13:00,
2013-04-29 06:18:00,65.1,63.3,30.04,South,173,0.0,0.0,94,0.00,,,0.00,meteohub,2013-04-29 10:18:00,
2013-04-29 06:24:00,64.9,63.1,30.04,South,173,0.0,0.0,94,0.00,,,0.00,meteohub,2013-04-29 10:24:00,
2013-04-29 06:29:00,64.8,63.0,30.04,South,173,0.0,0.0,94,0.00,,,0.00,meteohub,2013-04-29 10:29:00,
2013-04-29 06:34:00,64.8,63.0,30.04,South,173,0.0,0.0,94,0.00,,,0.00,meteohub,2013-04-29 10:34:00,
2013-04-29 06:39:00,64.8,63.0,30.04,South,172,0.0,0.0,94,0.00,,,0.00,meteohub,2013-04-29 10:39:00,
2013-04-29 06:44:00,64.4,62.6,30.04,South,173,0.0,0.0,94,0.00,,,0.00,meteohub,2013-04-29 10:44:00,
2013-04-29 06:49:00,64.2,62.4,30.04,South,173,0.0,0.0,94,0.00,,,0.00,meteohub,2013-04-29 10:49:00,
2013-04-29 06:54:00,64.2,62.4,30.04,South,172,0.0,0.0,94,0.00,,,0.00,meteohub,2013-04-29 10:54:00,
2013-04-29 07:00:00,64.0,62.6,30.04,South,173,0.0,0.0,95,0.00,,,0.00,meteohub,2013-04-29 11:00:00,
2013-04-29 07:05:00,64.0,62.6,30.04,South,173,0.0,0.0,95,0.00,,,0.00,meteohub,2013-04-29 11:05:00,
2013-04-29 07:10:00,64.0,62.6,30.04,South,171,0.0,1.0,95,0.00,,,0.00,meteohub,2013-04-29 11:10:00,
2013-04-29 07:15:00,64.2,62.8,30.04,South,170,0.0,1.0,95,0.00,,,0.00,meteohub,2013-04-29 11:15:00,
2013-04-29 07:20:00,64.2,62.8,30.04,South,171,0.0,0.0,95,0.00,,,0.00,meteohub,2013-04-29 11:20:00,
2013-04-29 07:25:00,64.6,63.5,30.04,South,171,0.0,0.0,96,0.00,,,0.00,meteohub,2013-04-29 11:25:00,
2013-04-29 07:30:00,64.8,63.7,30.05,South,170,0.0,0.0,96,0.00,,,0.00,meteohub,2013-04-29 11:30:00,
2013-04-29 07:35:00,64.9,63.9,30.05,South,170,0.0,0.0,96,0.00,,,0.00,meteohub,2013-04-29 11:35:00,
2013-04-29 07:40:00,65.1,64.0,30.05,South,170,0.0,0.0,96,0.00,,,0.00,meteohub,2013-04-29 11:40:00,
2013-04-29 07:46:00,65.7,64.4,30.05,South,170,0.0,0.0,96,0.00,,,0.00,meteohub,2013-04-29 11:46:00,
2013-04-29 07:51:00,66.0,64.8,30.05,South,170,0.0,0.0,96,0.00,,,0.00,meteohub,2013-04-29 11:51:00,
2013-04-29 07:56:00,66.4,65.1,30.05,South,170,0.0,0.0,96,0.00,,,0.00,meteohub,2013-04-29 11:56:00,
2013-04-29 08:01:00,66.7,65.5,30.05,SSE,167,0.0,0.0,96,0.00,,,0.00,meteohub,2013-04-29 12:01:00,
2013-04-29 08:06:00,66.9,65.5,30.06,SSE,167,0.0,0.0,95,0.00,,,0.00,meteohub,2013-04-29 12:06:00,
2013-04-29 08:11:00,67.5,66.0,30.06,SSW,201,1.0,0.0,95,0.00,,,0.00,meteohub,2013-04-29 12:11:00,
2013-04-29 08:16:00,67.6,65.8,30.05,ESE,117,0.0,1.0,94,0.00,,,0.00,meteohub,2013-04-29 12:16:00,
2013-04-29 08:22:00,68.0,66.2,30.05,SSE,166,0.0,4.0,94,0.00,,,0.00,meteohub,2013-04-29 12:22:00,
2013-04-29 08:27:00,68.4,66.2,30.05,SSE,165,0.0,4.0,93,0.00,,,0.00,meteohub,2013-04-29 12:27:00,
2013-04-29 08:32:00,68.7,66.6,30.05,East,99,0.0,4.0,93,0.00,,,0.00,meteohub,2013-04-29 12:32:00,
2013-04-29 08:37:00,69.6,67.3,30.06,SSW,210,1.0,1.0,92,0.00,,,0.00,meteohub,2013-04-29 12:37:00,
2013-04-29 08:42:00,70.5,67.5,30.05,South,173,0.0,2.0,90,0.00,,,0.00,meteohub,2013-04-29 12:42:00,
2013-04-29 08:47:00,71.1,67.6,30.05,SSW,193,0.0,2.0,89,0.00,,,0.00,meteohub,2013-04-29 12:47:00,
2013-04-29 08:52:00,71.4,67.3,30.05,SSE,156,0.0,2.0,87,0.00,,,0.00,meteohub,2013-04-29 12:52:00,
2013-04-29 08:57:00,72.1,67.6,30.05,SE,125,1.0,3.0,86,0.00,,,0.00,meteohub,2013-04-29 12:57:00,
2013-04-29 09:03:00,73.0,68.0,30.05,SW,224,0.0,5.0,84,0.00,,,0.00,meteohub,2013-04-29 13:03:00,
2013-04-29 09:08:00,73.8,68.0,30.05,SSE,157,2.0,6.0,82,0.00,,,0.00,meteohub,2013-04-29 13:08:00,
2013-04-29 09:13:00,74.3,68.0,30.05,South,191,4.0,6.0,81,0.00,,,0.00,meteohub,2013-04-29 13:13:00,
2013-04-29 09:18:00,74.8,68.2,30.04,South,179,3.0,6.0,80,0.00,,,0.00,meteohub,2013-04-29 13:18:00,
2013-04-29 09:23:00,75.6,68.5,30.04,SSW,203,4.0,6.0,79,0.00,,,0.00,meteohub,2013-04-29 13:23:00,
2013-04-29 09:28:00,76.1,68.7,30.05,ESE,107,0.0,7.0,78,0.00,,,0.00,meteohub,2013-04-29 13:28:00,
2013-04-29 09:33:00,76.6,68.5,30.05,SSE,156,3.0,7.0,76,0.00,,,0.00,meteohub,2013-04-29 13:33:00,
2013-04-29 09:38:00,77.2,68.7,30.05,South,173,4.0,7.0,75,0.00,,,0.00,meteohub,2013-04-29 13:38:00,
2013-04-29 09:44:00,77.5,68.2,30.05,South,183,2.0,7.0,73,0.00,,,0.00,meteohub,2013-04-29 13:44:00,
2013-04-29 09:49:00,77.5,67.8,30.05,SSE,148,2.0,10.0,72,0.00,,,0.00,meteohub,2013-04-29 13:49:00,
2013-04-29 09:54:00,77.9,67.8,30.05,SSE,160,2.0,10.0,71,0.00,,,0.00,meteohub,2013-04-29 13:54:00,
2013-04-29 09:59:00,78.3,67.3,30.05,SE,143,2.0,10.0,69,0.00,,,0.00,meteohub,2013-04-29 13:59:00,
2013-04-29 10:04:00,78.3,67.3,30.05,SE,146,6.0,11.0,69,0.00,,,0.00,meteohub,2013-04-29 14:04:00,
2013-04-29 10:09:00,78.3,67.3,30.05,SSW,193,6.0,11.0,69,0.00,,,0.00,meteohub,2013-04-29 14:09:00,
2013-04-29 10:14:00,78.4,66.9,30.05,WSW,242,4.0,11.0,68,0.00,,,0.00,meteohub,2013-04-29 14:14:00,
2013-04-29 10:19:00,78.6,67.6,30.05,South,181,2.0,11.0,69,0.00,,,0.00,meteohub,2013-04-29 14:19:00,
2013-04-29 10:25:00,79.3,67.5,30.05,SSW,194,4.0,8.0,67,0.00,,,0.00,meteohub,2013-04-29 14:25:00,
2013-04-29 10:30:00,79.5,67.6,30.05,ENE,75,6.0,8.0,67,0.00,,,0.00,meteohub,2013-04-29 14:30:00,
2013-04-29 10:35:00,79.9,67.1,30.05,SSE,156,2.0,8.0,65,0.00,,,0.00,meteohub,2013-04-29 14:35:00,
2013-04-29 10:40:00,80.1,66.7,30.05,South,184,3.0,7.0,64,0.00,,,0.00,meteohub,2013-04-29 14:40:00,
2013-04-29 10:45:00,80.1,66.4,30.05,SE,136,5.0,10.0,63,0.00,,,0.00,meteohub,2013-04-29 14:45:00,
2013-04-29 10:50:00,80.2,66.6,30.05,South,180,2.0,10.0,63,0.00,,,0.00,meteohub,2013-04-29 14:50:00,
2013-04-29 10:55:00,80.2,66.6,30.05,NW,312,2.0,8.0,63,0.00,,,0.00,meteohub,2013-04-29 14:55:00,
2013-04-29 11:00:00,80.4,66.7,30.05,SE,145,1.0,8.0,63,0.00,,,0.00,meteohub,2013-04-29 15:00:00,
2013-04-29 11:06:00,80.8,65.7,30.05,SSE,149,5.0,9.0,60,0.00,,,0.00,meteohub,2013-04-29 15:06:00,
2013-04-29 11:11:00,80.2,65.1,30.05,South,169,3.0,9.0,60,0.00,,,0.00,meteohub,2013-04-29 15:11:00,
2013-04-29 11:16:00,80.8,65.7,30.05,South,169,2.0,10.0,60,0.00,,,0.00,meteohub,2013-04-29 15:16:00,
2013-04-29 11:21:00,81.7,65.5,30.05,SSE,155,2.0,10.0,58,0.00,,,0.00,meteohub,2013-04-29 15:21:00,
2013-04-29 11:26:00,81.3,64.6,30.05,SW,217,4.0,8.0,57,0.00,,,0.00,meteohub,2013-04-29 15:26:00,
2013-04-29 11:31:00,81.7,66.0,30.04,NE,41,2.0,10.0,59,0.00,,,0.00,meteohub,2013-04-29 15:31:00,
2013-04-29 11:36:00,82.2,64.4,30.04,SE,146,0.0,10.0,55,0.00,,,0.00,meteohub,2013-04-29 15:36:00,
2013-04-29 11:42:00,82.6,64.8,30.04,South,173,1.0,10.0,55,0.00,,,0.00,meteohub,2013-04-29 15:42:00,
2013-04-29 11:47:00,82.9,65.1,30.04,ESE,108,3.0,7.0,55,0.00,,,0.00,meteohub,2013-04-29 15:47:00,
2013-04-29 11:52:00,83.1,65.3,30.04,SW,217,7.0,9.0,55,0.00,,,0.00,meteohub,2013-04-29 15:52:00,
2013-04-29 11:57:00,82.8,63.3,30.04,South,174,5.0,9.0,52,0.00,,,0.00,meteohub,2013-04-29 15:57:00,
2013-04-29 12:02:00,82.2,62.8,30.04,ESE,121,2.0,10.0,52,0.00,,,0.00,meteohub,2013-04-29 16:02:00,
2013-04-29 12:07:00,82.6,62.6,30.04,SSE,153,3.0,10.0,51,0.00,,,0.00,meteohub,2013-04-29 16:07:00,
2013-04-29 12:12:00,83.1,64.2,30.04,ESE,118,1.0,8.0,53,0.00,,,0.00,meteohub,2013-04-29 16:12:00,
2013-04-29 12:17:00,83.1,63.1,30.04,WSW,245,1.0,9.0,51,0.00,,,0.00,meteohub,2013-04-29 16:17:00,
2013-04-29 12:22:00,83.7,63.7,30.04,SSW,212,0.0,9.0,51,0.00,,,0.00,meteohub,2013-04-29 16:22:00,
2013-04-29 12:27:00,84.4,61.3,30.04,West,280,0.0,9.0,46,0.00,,,0.00,meteohub,2013-04-29 16:27:00,
2013-04-29 12:32:00,84.4,61.9,30.04,SSE,159,2.0,7.0,47,0.00,,,0.00,meteohub,2013-04-29 16:32:00,
2013-04-29 12:37:00,84.2,60.6,30.04,SSE,168,1.0,7.0,45,0.00,,,0.00,meteohub,2013-04-29 16:37:00,
2013-04-29 12:42:00,84.6,61.5,30.04,SSE,163,0.0,7.0,46,0.00,,,0.00,meteohub,2013-04-29 16:42:00,
2013-04-29 12:47:00,84.6,62.1,30.04,SSE,152,5.0,6.0,47,0.00,,,0.00,meteohub,2013-04-29 16:47:00,
2013-04-29 12:52:00,84.9,61.9,30.04,SE,146,3.0,6.0,46,0.00,,,0.00,meteohub,2013-04-29 16:52:00,
2013-04-29 12:57:00,84.9,59.9,30.04,SSE,153,6.0,6.0,43,0.00,,,0.00,meteohub,2013-04-29 16:57:00,
2013-04-29 13:02:00,84.4,60.1,30.04,SSW,202,0.0,8.0,44,0.00,,,0.00,meteohub,2013-04-29 17:02:00,
2013-04-29 13:07:00,84.2,60.6,30.04,SW,218,3.0,8.0,45,0.00,,,0.00,meteohub,2013-04-29 17:07:00,
2013-04-29 13:12:00,83.8,59.0,30.03,SE,135,4.0,8.0,43,0.00,,,0.00,meteohub,2013-04-29 17:12:00,
2013-04-29 13:17:00,83.5,59.4,30.03,South,173,6.0,7.0,44,0.00,,,0.00,meteohub,2013-04-29 17:17:00,
2013-04-29 13:22:00,83.3,59.7,30.03,SW,218,2.0,7.0,45,0.00,,,0.00,meteohub,2013-04-29 17:22:00,
2013-04-29 13:27:00,83.1,60.3,30.03,SE,139,2.0,8.0,46,0.00,,,0.00,meteohub,2013-04-29 17:27:00,
2013-04-29 13:32:00,83.1,61.3,30.03,South,176,5.0,8.0,48,0.00,,,0.00,meteohub,2013-04-29 17:32:00,
2013-04-29 13:37:00,83.3,61.0,30.02,SE,143,0.0,7.0,47,0.00,,,0.00,meteohub,2013-04-29 17:37:00,
2013-04-29 13:42:00,84.0,62.8,30.02,SSE,148,6.0,7.0,49,0.00,,,0.00,meteohub,2013-04-29 17:42:00,
2013-04-29 13:47:00,84.4,58.8,30.02,SSE,160,3.0,8.0,42,0.00,,,0.00,meteohub,2013-04-29 17:47:00,
2013-04-29 13:52:00,84.7,61.0,30.02,SSE,163,2.0,8.0,45,0.00,,,0.00,meteohub,2013-04-29 17:52:00,
2013-04-29 13:57:00,84.9,61.9,30.01,SSE,166,1.0,8.0,46,0.00,,,0.00,meteohub,2013-04-29 17:57:00,
2013-04-29 14:02:00,84.7,61.7,30.01,South,176,4.0,8.0,46,0.00,,,0.00,meteohub,2013-04-29 18:02:00,
2013-04-29 14:07:00,84.9,63.0,30.01,South,179,5.0,7.0,48,0.00,,,0.00,meteohub,2013-04-29 18:07:00,
2013-04-29 14:12:00,85.3,62.8,30.01,SSE,153,2.0,7.0,47,0.00,,,0.00,meteohub,2013-04-29 18:12:00,
2013-04-29 14:17:00,85.6,62.4,30.00,WSW,257,1.0,7.0,46,0.00,,,0.00,meteohub,2013-04-29 18:17:00,
2013-04-29 14:22:00,85.1,62.1,30.00,SW,225,0.0,7.0,46,0.00,,,0.00,meteohub,2013-04-29 18:22:00,
2013-04-29 14:27:00,85.3,61.0,30.00,ESE,122,2.0,5.0,44,0.00,,,0.00,meteohub,2013-04-29 18:27:00,
2013-04-29 14:32:00,85.3,61.0,30.00,SW,228,3.0,5.0,44,0.00,,,0.00,meteohub,2013-04-29 18:32:00,
2013-04-29 14:37:00,85.3,62.2,29.99,SSW,210,4.0,5.0,46,0.00,,,0.00,meteohub,2013-04-29 18:37:00,
2013-04-29 14:42:00,84.9,61.2,29.99,South,181,0.0,7.0,45,0.00,,,0.00,meteohub,2013-04-29 18:42:00,
2013-04-29 14:47:00,84.9,60.6,29.99,SE,127,2.0,7.0,44,0.00,,,0.00,meteohub,2013-04-29 18:47:00,
2013-04-29 14:52:00,84.7,60.4,29.98,South,188,0.0,7.0,44,0.00,,,0.00,meteohub,2013-04-29 18:52:00,
2013-04-29 14:57:00,85.5,61.0,29.98,South,177,2.0,6.0,44,0.00,,,0.00,meteohub,2013-04-29 18:57:00,
2013-04-29 15:02:00,85.6,61.2,29.97,SE,129,0.0,6.0,44,0.00,,,0.00,meteohub,2013-04-29 19:02:00,
2013-04-29 15:07:00,85.6,61.2,29.98,SE,137,0.0,5.0,44,0.00,,,0.00,meteohub,2013-04-29 19:07:00,
2013-04-29 15:12:00,86.2,61.0,29.97,SSE,158,4.0,5.0,43,0.00,,,0.00,meteohub,2013-04-29 19:12:00,
2013-04-29 15:17:00,86.4,59.9,29.97,NNW,328,1.0,7.0,41,0.00,,,0.00,meteohub,2013-04-29 19:17:00,
2013-04-29 15:22:00,86.2,60.4,29.97,WSW,248,3.0,7.0,42,0.00,,,0.00,meteohub,2013-04-29 19:22:00,
2013-04-29 15:27:00,86.4,61.2,29.96,SE,138,0.0,9.0,43,0.00,,,0.00,meteohub,2013-04-29 19:27:00,
2013-04-29 15:32:00,87.1,61.9,29.96,SSE,161,2.0,9.0,43,0.00,,,0.00,meteohub,2013-04-29 19:32:00,
2013-04-29 15:37:00,86.5,61.3,29.96,SE,142,1.0,6.0,43,0.00,,,0.00,meteohub,2013-04-29 19:37:00,
2013-04-29 15:42:00,86.0,62.2,29.96,SSW,197,1.0,7.0,45,0.00,,,0.00,meteohub,2013-04-29 19:42:00,
2013-04-29 15:47:00,86.0,62.2,29.96,SE,136,1.0,7.0,45,0.00,,,0.00,meteohub,2013-04-29 19:47:00,
2013-04-29 15:52:00,86.4,61.9,29.95,SSE,159,0.0,7.0,44,0.00,,,0.00,meteohub,2013-04-29 19:52:00,
2013-04-29 15:57:00,86.5,62.1,29.95,SE,126,3.0,6.0,44,0.00,,,0.00,meteohub,2013-04-29 19:57:00,
2013-04-29 16:02:00,85.6,61.2,29.94,SSE,155,5.0,8.0,44,0.00,,,0.00,meteohub,2013-04-29 20:02:00,
2013-04-29 16:07:00,85.6,62.4,29.94,ESE,122,3.0,11.0,46,0.00,,,0.00,meteohub,2013-04-29 20:07:00,
2013-04-29 16:12:00,85.8,62.1,29.94,East,95,0.0,11.0,45,0.00,,,0.00,meteohub,2013-04-29 20:12:00,
2013-04-29 16:17:00,86.4,62.4,29.93,SSW,212,0.0,11.0,45,0.00,,,0.00,meteohub,2013-04-29 20:17:00,
2013-04-29 16:22:00,86.4,62.4,29.93,SSW,194,0.0,7.0,45,0.00,,,0.00,meteohub,2013-04-29 20:22:00,
2013-04-29 16:27:00,86.9,62.4,29.93,SSE,161,0.0,6.0,44,0.00,,,0.00,meteohub,2013-04-29 20:27:00,
2013-04-29 16:32:00,87.1,62.6,29.93,SSW,204,0.0,6.0,44,0.00,,,0.00,meteohub,2013-04-29 20:32:00,
2013-04-29 16:37:00,87.3,62.6,29.93,SE,137,0.0,7.0,44,0.00,,,0.00,meteohub,2013-04-29 20:37:00,
2013-04-29 16:42:00,86.9,63.0,29.93,West,259,0.0,7.0,45,0.00,,,0.00,meteohub,2013-04-29 20:42:00,
2013-04-29 16:47:00,86.5,63.3,29.93,South,170,2.0,7.0,46,0.00,,,0.00,meteohub,2013-04-29 20:47:00,
2013-04-29 16:52:00,86.2,63.5,29.93,South,172,4.0,6.0,47,0.00,,,0.00,meteohub,2013-04-29 20:52:00,
2013-04-29 16:58:00,86.2,63.5,29.93,SSE,161,1.0,6.0,47,0.00,,,0.00,meteohub,2013-04-29 20:58:00,
2013-04-29 17:03:00,86.2,64.2,29.93,SW,218,0.0,6.0,48,0.00,,,0.00,meteohub,2013-04-29 21:03:00,
2013-04-29 17:08:00,86.2,64.2,29.93,WNW,285,0.0,5.0,48,0.00,,,0.00,meteohub,2013-04-29 21:08:00,
2013-04-29 17:13:00,86.2,64.2,29.93,NW,314,0.0,5.0,48,0.00,,,0.00,meteohub,2013-04-29 21:13:00,
2013-04-29 17:18:00,86.4,64.4,29.93,South,172,0.0,3.0,48,0.00,,,0.00,meteohub,2013-04-29 21:18:00,
2013-04-29 17:23:00,86.0,63.5,29.93,SSE,149,2.0,4.0,47,0.00,,,0.00,meteohub,2013-04-29 21:23:00,
2013-04-29 17:28:00,85.5,63.5,29.93,SW,214,3.0,8.0,48,0.00,,,0.00,meteohub,2013-04-29 21:28:00,
2013-04-29 17:34:00,84.7,63.5,29.93,SSE,163,1.0,8.0,49,0.00,,,0.00,meteohub,2013-04-29 21:34:00,
2013-04-29 17:39:00,84.6,63.9,29.93,SSE,160,2.0,8.0,50,0.00,,,0.00,meteohub,2013-04-29 21:39:00,
2013-04-29 17:44:00,84.4,63.1,29.93,SSE,161,3.0,8.0,49,0.00,,,0.00,meteohub,2013-04-29 21:44:00,
2013-04-29 17:49:00,84.2,63.5,29.93,SW,217,3.0,8.0,50,0.00,,,0.00,meteohub,2013-04-29 21:49:00,
2013-04-29 17:54:00,84.4,63.7,29.93,South,177,2.0,8.0,50,0.00,,,0.00,meteohub,2013-04-29 21:54:00,
2013-04-29 17:59:00,84.6,63.9,29.93,SE,143,0.0,8.0,50,0.00,,,0.00,meteohub,2013-04-29 21:59:00,
2013-04-29 18:04:00,84.9,64.2,29.93,SSE,165,0.0,6.0,50,0.00,,,0.00,meteohub,2013-04-29 22:04:00,
2013-04-29 18:10:00,85.1,64.4,29.93,SSE,163,2.0,6.0,50,0.00,,,0.00,meteohub,2013-04-29 22:10:00,
2013-04-29 18:15:00,85.1,64.4,29.93,SSW,205,0.0,6.0,50,0.00,,,0.00,meteohub,2013-04-29 22:15:00,
2013-04-29 18:20:00,85.3,64.0,29.93,SSE,155,0.0,6.0,49,0.00,,,0.00,meteohub,2013-04-29 22:20:00,
2013-04-29 18:25:00,84.7,63.5,29.93,SSE,156,2.0,6.0,49,0.00,,,0.00,meteohub,2013-04-29 22:25:00,
2013-04-29 18:30:00,84.0,63.9,29.93,South,169,3.0,6.0,51,0.00,,,0.00,meteohub,2013-04-29 22:30:00,
2013-04-29 18:35:00,83.8,64.4,29.92,ESE,102,2.0,5.0,52,0.00,,,0.00,meteohub,2013-04-29 22:35:00,
2013-04-29 18:40:00,83.7,64.2,29.93,SE,145,0.0,4.0,52,0.00,,,0.00,meteohub,2013-04-29 22:40:00,
2013-04-29 18:46:00,83.7,64.2,29.93,SE,129,0.0,3.0,52,0.00,,,0.00,meteohub,2013-04-29 22:46:00,
2013-04-29 18:51:00,83.7,64.8,29.93,SSE,153,0.0,2.0,53,0.00,,,0.00,meteohub,2013-04-29 22:51:00,
2013-04-29 18:56:00,83.5,66.6,29.93,SW,214,2.0,3.0,57,0.00,,,0.00,meteohub,2013-04-29 22:56:00,
2013-04-29 19:01:00,82.9,68.2,29.94,SSE,167,2.0,3.0,61,0.00,,,0.00,meteohub,2013-04-29 23:01:00,
2013-04-29 19:06:00,82.2,69.3,29.93,SE,136,2.0,4.0,65,0.00,,,0.00,meteohub,2013-04-29 23:06:00,
2013-04-29 19:12:00,81.3,69.3,29.93,East,100,0.0,6.0,67,0.00,,,0.00,meteohub,2013-04-29 23:12:00,
2013-04-29 19:17:00,81.0,69.8,29.93,NE,53,0.0,6.0,69,0.00,,,0.00,meteohub,2013-04-29 23:17:00,
2013-04-29 19:22:00,80.4,69.8,29.93,West,260,0.0,7.0,70,0.00,,,0.00,meteohub,2013-04-29 23:22:00,
2013-04-29 19:27:00,80.1,69.8,29.93,East,91,0.0,7.0,71,0.00,,,0.00,meteohub,2013-04-29 23:27:00,
2013-04-29 19:32:00,79.7,69.8,29.93,ESE,122,0.0,6.0,72,0.00,,,0.00,meteohub,2013-04-29 23:32:00,
2013-04-29 19:37:00,79.3,70.7,29.93,SSE,152,0.0,6.0,75,0.00,,,0.00,meteohub,2013-04-29 23:37:00,
2013-04-29 19:42:00,78.6,70.9,29.94,SSE,158,0.0,6.0,77,0.01,,,0.00,meteohub,2013-04-29 23:42:00,
2013-04-29 19:47:00,77.4,70.7,29.94,West,263,0.0,5.0,80,0.01,,,0.01,meteohub,2013-04-29 23:47:00,
2013-04-29 19:53:00,76.3,71.1,29.94,SE,143,2.0,4.0,84,0.04,,,0.04,meteohub,2013-04-29 23:53:00,
2013-04-29 19:58:00,75.0,70.9,29.94,SE,134,0.0,6.0,87,0.08,,,0.08,meteohub,2013-04-29 23:58:00,
2013-04-29 20:03:00,74.1,70.7,29.94,SSE,162,0.0,6.0,89,0.18,,,0.18,meteohub,2013-04-30 00:03:00,
2013-04-29 20:08:00,73.6,70.5,29.94,SSE,160,0.0,6.0,90,0.19,,,0.19,meteohub,2013-04-30 00:08:00,
2013-04-29 20:13:00,73.2,70.5,29.94,East,82,0.0,5.0,91,0.19,,,0.19,meteohub,2013-04-30 00:13:00,
2013-04-29 20:18:00,72.9,70.2,29.94,NE,56,0.0,3.0,91,0.19,,,0.19,meteohub,2013-04-30 00:18:00,
2013-04-29 20:24:00,72.9,70.3,29.94,NE,44,0.0,3.0,92,0.19,,,0.19,meteohub,2013-04-30 00:24:00,
2013-04-29 20:29:00,72.9,70.3,29.94,North,11,0.0,3.0,92,0.19,,,0.19,meteohub,2013-04-30 00:29:00,
2013-04-29 20:34:00,72.9,70.3,29.94,North,10,0.0,3.0,92,0.19,,,0.19,meteohub,2013-04-30 00:34:00,
2013-04-29 20:39:00,72.9,70.3,29.95,SSW,208,0.0,2.0,92,0.19,,,0.19,meteohub,2013-04-30 00:39:00,
2013-04-29 20:44:00,72.9,70.7,29.98,SW,225,0.0,1.0,93,0.18,,,0.19,meteohub,2013-04-30 00:44:00,
2013-04-29 20:49:00,70.9,65.8,29.97,East,89,1.0,2.0,84,0.18,,,0.19,meteohub,2013-04-30 00:49:00,
2013-04-29 20:54:00,67.3,63.3,29.97,South,174,3.0,8.0,87,0.13,,,0.19,meteohub,2013-04-30 00:54:00,
2013-04-29 21:00:00,66.0,63.9,29.98,South,172,5.0,14.0,93,0.43,,,0.57,meteohub,2013-04-30 01:00:00,
2013-04-29 21:05:00,65.5,64.0,29.99,SE,132,6.0,20.0,95,0.87,,,1.26,meteohub,2013-04-30 01:05:00,
2013-04-29 21:10:00,65.7,64.4,29.96,South,177,6.0,20.0,96,1.07,,,1.70,meteohub,2013-04-30 01:10:00,
2013-04-29 21:15:00,65.8,64.9,29.96,South,177,4.0,12.0,97,1.51,,,1.76,meteohub,2013-04-30 01:15:00,
2013-04-29 21:20:00,66.2,65.3,29.96,SSE,159,1.0,13.0,97,1.57,,,1.76,meteohub,2013-04-30 01:20:00,
2013-04-29 21:25:00,66.6,65.7,29.96,South,176,1.0,13.0,97,1.57,,,1.76,meteohub,2013-04-30 01:25:00,
2013-04-29 21:30:00,66.7,66.2,29.97,SSW,208,1.0,6.0,98,1.57,,,1.76,meteohub,2013-04-30 01:30:00,
2013-04-29 21:36:00,66.9,66.4,29.97,West,279,0.0,5.0,98,1.57,,,1.76,meteohub,2013-04-30 01:36:00,
2013-04-29 21:41:00,66.9,66.0,29.97,SE,129,1.0,5.0,97,1.57,,,1.76,meteohub,2013-04-30 01:41:00,
2013-04-29 21:46:00,67.3,66.7,29.98,SSE,167,0.0,5.0,98,1.57,,,1.76,meteohub,2013-04-30 01:46:00,
2013-04-29 21:51:00,67.3,66.7,29.99,SSW,210,0.0,5.0,98,1.45,,,1.76,meteohub,2013-04-30 01:51:00,
2013-04-29 21:56:00,67.3,66.7,29.99,SSW,210,0.0,5.0,98,1.04,,,1.76,meteohub,2013-04-30 01:56:00,
2013-04-29 22:01:00,67.3,66.7,29.99,SE,145,0.0,2.0,98,0.69,,,1.80,meteohub,2013-04-30 02:01:00,
2013-04-29 22:06:00,67.3,66.7,29.99,SSW,204,0.0,3.0,98,0.55,,,2.05,meteohub,2013-04-30 02:06:00,
2013-04-29 22:11:00,67.3,66.7,29.99,SSE,153,0.0,3.0,98,0.36,,,2.10,meteohub,2013-04-30 02:11:00,
2013-04-29 22:17:00,67.3,66.7,29.99,SSE,165,0.0,3.0,98,0.34,,,2.10,meteohub,2013-04-30 02:17:00,
2013-04-29 22:22:00,67.3,66.7,29.99,SSE,156,0.0,1.0,98,0.35,,,2.11,meteohub,2013-04-30 02:22:00,
2013-04-29 22:27:00,67.3,66.7,30.00,SSE,156,0.0,2.0,98,0.40,,,2.13,meteohub,2013-04-30 02:27:00,
2013-04-29 22:32:00,67.6,67.1,30.01,NW,309,0.0,3.0,98,0.41,,,2.17,meteohub,2013-04-30 02:32:00,
2013-04-29 22:37:00,67.6,67.1,30.01,NNE,30,0.0,4.0,98,0.44,,,2.20,meteohub,2013-04-30 02:37:00,
2013-04-29 22:42:00,67.6,67.1,30.01,NNE,29,0.0,4.0,98,0.44,,,2.20,meteohub,2013-04-30 02:42:00,
2013-04-29 22:47:00,67.6,67.1,30.01,NNE,28,0.0,4.0,98,0.44,,,2.20,meteohub,2013-04-30 02:47:00,
2013-04-29 22:52:00,67.6,67.1,30.01,WNW,291,0.0,1.0,98,0.44,,,2.20,meteohub,2013-04-30 02:52:00,
2013-04-29 22:57:00,67.6,67.1,30.01,WNW,291,0.0,1.0,98,0.44,,,2.20,meteohub,2013-04-30 02:57:00,
2013-04-29 23:03:00,67.6,67.1,30.01,WNW,291,0.0,1.0,98,0.22,,,2.21,meteohub,2013-04-30 03:03:00,
2013-04-29 23:08:00,67.8,67.3,30.01,SW,219,0.0,1.0,98,0.15,,,2.22,meteohub,2013-04-30 03:08:00,
2013-04-29 23:13:00,67.8,67.3,30.01,SW,218,0.0,1.0,98,0.12,,,2.22,meteohub,2013-04-30 03:13:00,
2013-04-29 23:18:00,67.6,67.1,30.01,SW,218,0.0,1.0,98,0.12,,,2.23,meteohub,2013-04-30 03:18:00,
2013-04-29 23:23:00,67.6,67.1,30.00,NE,35,3.0,3.0,98,0.11,,,2.23,meteohub,2013-04-30 03:23:00,
2013-04-29 23:28:00,67.8,67.3,30.00,NNW,348,0.0,4.0,98,0.12,,,2.28,meteohub,2013-04-30 03:28:00,
2013-04-29 23:33:00,68.0,67.6,30.00,NNW,347,0.0,4.0,99,0.12,,,2.29,meteohub,2013-04-30 03:33:00,
2013-04-29 23:38:00,68.2,67.6,30.00,North,11,2.0,4.0,98,0.09,,,2.29,meteohub,2013-04-30 03:38:00,
2013-04-29 23:43:00,68.0,67.5,30.00,NNE,13,2.0,4.0,98,0.09,,,2.29,meteohub,2013-04-30 03:43:00,
2013-04-29 23:49:00,67.8,67.3,29.99,NNW,338,2.0,4.0,98,0.09,,,2.29,meteohub,2013-04-30 03:49:00,
2013-04-29 23:54:00,67.8,67.3,29.99,NNE,26,2.0,5.0,98,0.09,,,2.29,meteohub,2013-04-30 03:54:00,
2013-04-29 23:59:00,67.6,67.1,29.99,North,350,0.0,5.0,98,0.09,,,2.29,meteohub,2013-04-30 03:59:00,